RJCH

Hakodate Airport

Hakodate, Japan
TAF RJCH 260512Z 2606/2712 25011KT 9999 FEW040 TEMPO 2606/2608 29015G25KT
Issued Valid From Valid To
Apr-26 @ 05:12 UTC
(41 minutes ago)
Apr-26 @ 06:00 UTC
(in 7 minutes)
Apr-27 @ 12:00 UTC
(-1 days ago)
Apr-26 @ 06:00 to Apr-27 @ 12:00
TAF RJCH 260512Z 2606/2712 25011KT 9999 FEW040
Wind Visibility Clouds
250° at 11 knots 10,000+ meters
  • Few at 4,000' AGL
Temporary Apr-26 @ 06:00 to Apr-26 @ 08:00
TEMPO 2606/2608 29015G25KT
Wind
290° at 15 knots
 Gusting to 25 knots
TAF RJCH 260512Z 2606/2712 25011KT 9999 FEW040 TEMPO 2606/2608 29015G25KT
Issued Apr-26 @ 05:12 UTC
(41 minutes ago)
Valid From Apr-26 @ 06:00 UTC
(in 7 minutes)
Valid To Apr-27 @ 12:00 UTC
(-1 days ago)
Apr-26 @ 06:00 - Apr-27 @ 12:00
Wind Visibility
250° at 11 knots 10,000+ meters
Clouds
  • Few at 4,000' AGL
Temporary Apr-26 @ 06:00 - Apr-26 @ 08:00
Wind
290° at 15 knots
 Gusting to 25 knots